Terminal Aerodrome Forecast
Issued by NWS

Home | Current Version | Previous Version | Text Only | Print | Product List | Glossary On
Versions: 1 2 3 4 5 6 7 8 9 10 11 12 13 14 15 16 17 18 19 20 21 22 23 24 25 26 27 28 29 30 31 32 33 34 35 36 37 38 39 40 41 42 43 44 45 46 47 48 49 50
000
FTUS44 KHGX 190524
TAFCXO
TAF
KCXO 190524Z 1906/2006 28005KT P6SM VCTS SCT015CB SCT025 BKN250
      TEMPO 1906/1907 VRB15G30KT 5SM -TSRA BKN025CB
     FM190800 27004KT P6SM FEW015 SCT250
     FM191000 VRB03KT 2SM BR SCT007
     FM191500 21009KT P6SM SCT012 BKN250
     FM191800 22014G24KT P6SM FEW035
     FM192200 23011KT P6SM VCTS SCT035CB SCT070
     FM200300 27004KT P6SM SCT100 BKN250=

USA.gov is the U.S. government's official web portal to all federal, state and local government web resources and services.